EST,Max TemperatureF,Mean TemperatureF,Min TemperatureF,Max Dew PointF,MeanDew PointF,Min DewpointF,Max Humidity, Mean Humidity, Min Humidity, Max Sea Level PressureIn, Mean Sea Level PressureIn, Min Sea Level PressureIn, Max VisibilityMiles, Mean VisibilityMiles, Min VisibilityMiles, Max Wind SpeedMPH, Mean Wind SpeedMPH, Max Gust SpeedMPH,PrecipitationIn, CloudCover, Events, WindDirDegrees
2012-11-1,54,46,39,39,37,34,86,66,53,29.59,29.56,29.52,10,10,10,12,3,,0.00,6,,224
2012-11-2,53,48,44,40,34,29,82,60,45,29.67,29.60,29.55,10,10,10,13,3,22,0.00,7,,304
2012-11-3,53,48,41,32,30,27,65,54,40,29.86,29.76,29.67,10,10,10,13,6,23,0.00,4,,303
2012-11-4,53,42,33,30,28,27,78,58,41,29.96,29.91,29.87,10,10,10,12,6,16,0.00,0,,303
2012-11-5,45,36,27,30,21,18,85,55,37,30.17,30.04,29.96,10,10,10,13,5,20,0.00,3,,345
2012-11-6,44,32,21,22,17,12,82,60,28,30.25,30.20,30.14,10,10,10,6,1,,0.00,0,,31
2012-11-7,37,32,27,29,26,20,87,76,59,30.14,29.87,29.72,10,4,0,21,12,32,0.13,7,Fog-Snow,17
2012-11-8,41,37,33,30,29,27,81,71,62,29.82,29.72,29.65,10,9,2,20,15,33,0.06,8,Rain-Snow,351
2012-11-9,53,44,34,28,22,15,75,47,22,30.15,29.99,29.81,10,10,10,15,9,26,0.00,1,,326
2012-11-10,57,44,32,34,31,28,85,65,36,30.45,30.30,30.15,10,10,9,7,1,,0.00,2,,27
2012-11-11,64,50,37,45,38,32,87,70,43,30.53,30.48,30.44,10,9,2,12,2,18,0.00,3,,190
2012-11-12,68,52,37,58,46,34,93,80,52,30.50,30.42,30.23,10,6,0,15,2,21,0.00,6,Fog-Rain,188
2012-11-13,64,50,34,61,44,28,93,81,71,30.43,30.26,30.14,10,8,2,16,9,28,0.52,7,Rain,320
2012-11-14,48,38,28,29,25,22,88,63,36,30.53,30.48,30.44,10,10,10,15,4,20,0.00,2,,27
2012-11-15,45,36,26,28,25,21,85,68,44,30.47,30.40,30.32,10,10,10,12,2,,0.00,2,,38
2012-11-16,50,39,28,28,25,23,85,65,35,30.44,30.34,30.29,10,10,10,6,2,,0.00,0,,344
2012-11-17,52,38,25,29,24,20,82,65,35,30.66,30.58,30.45,10,10,9,8,1,,0.00,0,,7
2012-11-18,50,37,24,30,26,20,88,68,43,30.72,30.66,30.62,10,9,7,12,2,,0.00,0,,44
2012-11-19,50,37,24,34,28,20,89,73,52,30.62,30.45,30.28,10,10,8,9,2,,0.00,1,,51
2012-11-20,52,38,24,34,27,18,86,71,43,30.26,30.19,30.13,10,9,6,8,1,,0.00,0,,35
2012-11-21,53,42,30,34,30,26,85,71,45,30.27,30.22,30.17,10,10,8,10,2,,0.00,0,,45
2012-11-22,57,42,28,39,30,23,93,75,42,30.30,30.23,30.15,10,8,6,4,0,,0.00,1,,180
2012-11-23,55,42,28,45,35,25,93,82,55,30.14,29.93,29.66,10,6,0,10,1,,0.00,5,Fog,193
2012-11-24,50,42,34,45,26,15,86,54,31,29.74,29.65,29.59,10,10,7,20,7,30,0.02,6,Rain-Snow,303
2012-11-25,39,34,30,21,18,16,67,50,39,29.92,29.84,29.76,10,10,10,16,6,23,0.00,2,,270
2012-11-26,46,36,26,22,21,20,78,55,35,30.27,30.08,29.92,10,10,10,14,5,23,0.00,2,,282
2012-11-27,34,30,25,31,28,20,89,85,76,30.33,30.28,30.22,10,3,0,5,0,,0.22,8,Fog-Snow,359
2012-11-28,39,34,30,29,26,21,85,72,55,30.22,30.19,30.14,10,10,9,8,4,,0.00,5,,327
2012-11-29,42,32,23,23,20,18,88,59,40,30.31,30.26,30.21,10,10,7,10,4,16,0.00,0,,234
2012-11-30,39,33,27,26,21,12,81,62,42,30.53,30.44,30.27,10,9,2,10,4,,0.00,5,Snow,47